createdAt,value
2023-03-06T00:03:18.212Z,98460.30
2023-03-06T00:08:21.903Z,98464.69
2023-03-06T00:13:26.860Z,98460.77
2023-03-06T00:18:30.107Z,98458.14
2023-03-06T00:23:33.165Z,98455.24
2023-03-06T00:28:36.712Z,98453.02
2023-03-06T00:33:39.786Z,98447.60
2023-03-06T00:38:42.906Z,98448.06
2023-03-06T00:43:46.022Z,98449.41
2023-03-06T00:48:48.997Z,98449.63
2023-03-06T00:53:52.105Z,98446.35
2023-03-06T00:58:55.153Z,98440.15
2023-03-06T01:03:58.312Z,98436.31
2023-03-06T01:09:01.639Z,98435.41
2023-03-06T01:14:05.225Z,98436.09
2023-03-06T01:19:08.558Z,98433.42
2023-03-06T01:24:11.653Z,98426.30
2023-03-06T01:29:14.765Z,98425.59
2023-03-06T01:34:18.646Z,98422.12
2023-03-06T01:39:21.690Z,98420.20
2023-03-06T01:44:24.694Z,98420.62
2023-03-06T01:49:37.027Z,98417.53
2023-03-06T01:54:52.513Z,98416.73
2023-03-06T02:00:18.923Z,98412.04
2023-03-06T02:05:22.488Z,98408.27
2023-03-06T02:10:25.583Z,98401.70
2023-03-06T02:15:30.314Z,98402.64
2023-03-06T02:20:57.699Z,98407.08
2023-03-06T02:26:02.472Z,98411.59
2023-03-06T02:31:06.618Z,98412.42
2023-03-06T02:36:15.736Z,98408.48
2023-03-06T02:41:18.898Z,98408.38
2023-03-06T02:46:21.870Z,98412.66
2023-03-06T02:51:25.206Z,98412.88
2023-03-06T02:56:28.270Z,98412.35
2023-03-06T03:01:31.623Z,98409.88
2023-03-06T03:06:34.627Z,98402.64
2023-03-06T03:11:37.855Z,98405.89
2023-03-06T03:16:40.803Z,98404.92
2023-03-06T03:21:43.790Z,98406.23
2023-03-06T03:26:46.734Z,98404.04
2023-03-06T03:31:49.702Z,98402.27
2023-03-06T03:36:52.693Z,98400.68
2023-03-06T03:41:55.760Z,98397.73
2023-03-06T03:46:58.904Z,98397.60
2023-03-06T03:52:01.865Z,98393.19
2023-03-06T03:57:05.076Z,98394.77
2023-03-06T04:02:08.085Z,98391.76
2023-03-06T04:07:11.088Z,98391.52
2023-03-06T04:12:14.085Z,98395.31
2023-03-06T04:17:17.011Z,98391.34
2023-03-06T04:22:20.091Z,98390.23
2023-03-06T04:27:23.072Z,98388.38
2023-03-06T04:32:26.154Z,98385.91
2023-03-06T04:37:29.314Z,98384.64
2023-03-06T04:42:32.250Z,98382.01
2023-03-06T04:47:35.210Z,98381.83
2023-03-06T04:52:38.344Z,98386.60
2023-03-06T04:57:44.225Z,98385.52
2023-03-06T05:02:47.592Z,98384.48
2023-03-06T05:07:50.763Z,98386.27
2023-03-06T05:12:53.742Z,98383.50
2023-03-06T05:17:56.697Z,98387.05
2023-03-06T05:22:59.671Z,98390.35
2023-03-06T05:28:02.626Z,98389.06
2023-03-06T05:33:05.546Z,98390.13
2023-03-06T05:38:09.519Z,98390.80
2023-03-06T05:43:13.012Z,98390.55
2023-03-06T05:48:16.298Z,98395.36
2023-03-06T05:53:19.270Z,98396.95
2023-03-06T05:58:22.208Z,98396.52
2023-03-06T06:03:26.584Z,98395.52
2023-03-06T06:08:29.544Z,98386.42
2023-03-06T06:13:32.923Z,98383.11
2023-03-06T06:18:35.797Z,98383.02
2023-03-06T06:23:38.858Z,98384.11
2023-03-06T06:28:41.805Z,98386.85
2023-03-06T06:33:45.557Z,98389.69
2023-03-06T06:38:49.836Z,98393.16
2023-03-06T06:43:53.397Z,98391.45
2023-03-06T06:48:56.344Z,98392.30
2023-03-06T06:54:00.778Z,98393.61
2023-03-06T06:59:16.003Z,98396.91
2023-03-06T07:04:20.294Z,98391.45
2023-03-06T07:09:23.385Z,98395.59
2023-03-06T07:14:26.411Z,98393.66
2023-03-06T07:19:29.407Z,98390.65
2023-03-06T07:24:32.447Z,98393.56
2023-03-06T07:29:36.014Z,98391.85
2023-03-06T07:34:39.004Z,98382.89
2023-03-06T07:39:42.069Z,98376.05
2023-03-06T07:44:44.998Z,98376.15
2023-03-06T07:49:47.998Z,98384.14
2023-03-06T07:54:50.955Z,98388.48
2023-03-06T07:59:54.022Z,98382.60
2023-03-06T08:04:57.376Z,98383.39
2023-03-06T08:10:00.322Z,98382.92
2023-03-06T08:15:03.601Z,98379.48
2023-03-06T08:20:10.457Z,98373.83
2023-03-06T08:25:13.584Z,98368.45
2023-03-06T08:30:17.075Z,98367.12
2023-03-06T08:35:20.173Z,98361.81
2023-03-06T08:40:23.456Z,98358.44
2023-03-06T08:45:26.446Z,98360.77
2023-03-06T08:50:29.462Z,98360.20
2023-03-06T08:55:37.200Z,98361.13
2023-03-06T09:00:40.419Z,98363.18
2023-03-06T09:05:43.618Z,98366.80
2023-03-06T09:10:48.805Z,98366.52
2023-03-06T09:15:51.775Z,98365.26
2023-03-06T09:20:54.872Z,98355.14
2023-03-06T09:26:01.729Z,98347.36
2023-03-06T09:31:13.976Z,98341.88
2023-03-06T09:36:21.682Z,98343.21
2023-03-06T09:41:38.452Z,98345.69
2023-03-06T09:47:07.124Z,98346.85
2023-03-06T09:52:52.018Z,98347.23
2023-03-06T09:58:17.943Z,98355.56
2023-03-06T10:03:42.061Z,98346.80
2023-03-06T10:09:12.104Z,98344.25
2023-03-06T10:20:28.344Z,98328.45
2023-03-06T10:25:54.312Z,98317.57
2023-03-06T10:31:10.491Z,98306.24
2023-03-06T10:36:19.681Z,98300.90
2023-03-06T10:41:32.104Z,98294.98
2023-03-06T10:46:39.322Z,98286.13
2023-03-06T10:51:55.961Z,98280.17
2023-03-06T10:57:17.224Z,98272.30
2023-03-06T11:02:38.636Z,98265.71
2023-03-06T11:07:59.380Z,98264.10
2023-03-06T11:13:22.107Z,98259.50
2023-03-06T11:19:01.389Z,98253.52
2023-03-06T11:24:15.828Z,98237.25
2023-03-06T11:29:38.470Z,98230.80
2023-03-06T11:34:54.760Z,98232.67
2023-03-06T11:40:39.055Z,98223.29
2023-03-06T11:46:02.647Z,98217.41
2023-03-06T11:51:21.467Z,98210.10
2023-03-06T11:56:44.565Z,98205.56
2023-03-06T12:02:21.728Z,98199.77
2023-03-06T12:08:19.632Z,98193.00
2023-03-06T12:13:46.640Z,98190.30
2023-03-06T12:18:54.460Z,98188.13
2023-03-06T12:24:11.727Z,98184.33
2023-03-06T12:29:23.544Z,98183.69
2023-03-06T12:35:03.564Z,98178.61
2023-03-06T12:40:29.766Z,98180.45
2023-03-06T12:45:39.201Z,98182.60
2023-03-06T12:50:45.278Z,98183.54
2023-03-06T12:55:49.783Z,98184.40
2023-03-06T13:01:07.829Z,98181.56
2023-03-06T13:06:30.900Z,98176.02
2023-03-06T13:11:51.034Z,98179.50
2023-03-06T13:16:54.353Z,98174.02
2023-03-06T13:21:57.423Z,98171.85
2023-03-06T13:27:06.349Z,98168.49
2023-03-06T13:32:15.364Z,98168.77
2023-03-06T13:37:23.128Z,98163.42
2023-03-06T13:42:33.166Z,98158.20
2023-03-06T13:48:03.167Z,98159.51
2023-03-06T13:53:24.313Z,98156.39
2023-03-06T13:58:57.663Z,98150.91
2023-03-06T14:04:16.353Z,98149.59
2023-03-06T14:09:28.237Z,98149.16
2023-03-06T14:14:40.096Z,98148.91
2023-03-06T14:19:42.983Z,98145.08
2023-03-06T14:24:54.181Z,98147.76
2023-03-06T14:30:13.061Z,98151.77
2023-03-06T14:35:27.863Z,98153.70
2023-03-06T14:40:43.387Z,98155.39
2023-03-06T14:46:09.100Z,98151.19
2023-03-06T14:51:23.291Z,98151.62
2023-03-06T14:56:26.863Z,98145.45
2023-03-06T15:01:36.420Z,98146.52
2023-03-06T15:06:42.488Z,98140.48
2023-03-06T15:11:51.281Z,98138.02
2023-03-06T15:16:54.459Z,98138.41
2023-03-06T15:21:57.273Z,98136.56
2023-03-06T15:27:03.276Z,98135.72
2023-03-06T15:32:33.130Z,98128.98
2023-03-06T15:37:35.947Z,98131.48
2023-03-06T15:42:38.970Z,98130.59
2023-03-06T15:47:42.996Z,98126.48
2023-03-06T15:52:47.119Z,98126.55
2023-03-06T15:57:56.838Z,98129.22
2023-03-06T16:03:00.547Z,98125.51
2023-03-06T16:08:04.780Z,98125.52
2023-03-06T16:13:15.932Z,98124.02
2023-03-06T16:18:19.158Z,98125.59
2023-03-06T16:23:21.964Z,98124.94
2023-03-06T16:28:26.623Z,98121.45
2023-03-06T16:33:29.441Z,98121.94
2023-03-06T16:38:32.232Z,98119.02
2023-03-06T16:43:35.092Z,98123.46
2023-03-06T16:48:37.838Z,98128.50
2023-03-06T16:53:42.263Z,98144.97
2023-03-06T16:58:45.418Z,98142.00
2023-03-06T17:03:48.309Z,98143.81
2023-03-06T17:08:51.529Z,98145.86
2023-03-06T17:13:55.476Z,98142.80
2023-03-06T17:19:00.093Z,98145.76
2023-03-06T17:24:03.924Z,98144.98
2023-03-06T17:29:07.188Z,98148.23
2023-03-06T17:34:10.115Z,98151.66
2023-03-06T17:39:13.075Z,98152.77
2023-03-06T17:44:16.719Z,98149.90
2023-03-06T17:49:22.399Z,98145.09
2023-03-06T17:54:30.093Z,98147.05
2023-03-06T17:59:36.467Z,98144.23
2023-03-06T18:04:39.371Z,98140.98
2023-03-06T18:09:43.185Z,98137.66
2023-03-06T18:14:46.720Z,98132.89
2023-03-06T18:19:49.629Z,98137.83
2023-03-06T18:24:52.511Z,98134.16
2023-03-06T18:29:55.820Z,98132.39
2023-03-06T18:34:58.653Z,98129.40
2023-03-06T18:40:01.544Z,98133.61
2023-03-06T18:45:04.667Z,98132.01
2023-03-06T18:50:07.954Z,98136.27
2023-03-06T18:55:10.941Z,98130.78
2023-03-06T19:00:14.127Z,98130.50
2023-03-06T19:05:17.487Z,98128.85
2023-03-06T19:10:20.551Z,98120.68
2023-03-06T19:15:23.396Z,98114.56
2023-03-06T19:20:26.770Z,98111.45
2023-03-06T19:25:29.570Z,98108.85
2023-03-06T19:30:32.447Z,98103.25
2023-03-06T19:35:35.505Z,98101.69
2023-03-06T19:40:38.381Z,98100.55
2023-03-06T19:45:44.701Z,98103.95
2023-03-06T19:50:47.579Z,98098.86
2023-03-06T19:55:50.491Z,98093.92
2023-03-06T20:00:53.295Z,98090.67
2023-03-06T20:05:56.130Z,98089.68
2023-03-06T20:10:58.908Z,98089.00
2023-03-06T20:16:04.840Z,98088.73
2023-03-06T20:21:07.977Z,98091.09
2023-03-06T20:26:13.061Z,98088.83
2023-03-06T20:31:17.997Z,98087.05
2023-03-06T20:36:23.518Z,98092.72
2023-03-06T20:41:28.075Z,98090.48
2023-03-06T20:46:31.377Z,98086.71
2023-03-06T20:51:39.203Z,98089.45
2023-03-06T20:56:43.283Z,98080.58
2023-03-06T21:01:48.071Z,98079.45
2023-03-06T21:06:53.321Z,98082.91
2023-03-06T21:11:56.098Z,98076.02
2023-03-06T21:16:59.410Z,98073.80
2023-03-06T21:22:02.219Z,98074.96
2023-03-06T21:27:05.047Z,98072.30
2023-03-06T21:32:07.937Z,98070.88
2023-03-06T21:37:10.803Z,98071.52
2023-03-06T21:42:13.702Z,98070.61
2023-03-06T21:47:16.534Z,98073.98
2023-03-06T21:52:19.310Z,98070.70
2023-03-06T21:57:22.121Z,98071.58
2023-03-06T22:02:25.029Z,98070.27
2023-03-06T22:07:29.050Z,98066.46
2023-03-06T22:12:34.696Z,98065.56
2023-03-06T22:17:37.551Z,98062.45
2023-03-06T22:22:40.331Z,98060.42
2023-03-06T22:27:43.138Z,98060.24
2023-03-06T22:32:45.958Z,98056.30
2023-03-06T22:37:48.819Z,98061.41
2023-03-06T22:42:51.730Z,98063.63
2023-03-06T22:48:02.317Z,98063.36
2023-03-06T22:53:12.112Z,98061.98
2023-03-06T22:58:15.280Z,98055.66
2023-03-06T23:03:18.078Z,98056.25
2023-03-06T23:08:20.886Z,98057.89
2023-03-06T23:13:23.742Z,98067.85
2023-03-06T23:18:28.623Z,98063.24
2023-03-06T23:23:31.430Z,98058.63
2023-03-06T23:28:35.154Z,98056.42
2023-03-06T23:33:41.995Z,98048.01
2023-03-06T23:38:45.517Z,98047.04
2023-03-06T23:43:48.828Z,98046.95
2023-03-06T23:48:52.217Z,98062.02
2023-03-06T23:53:58.337Z,98075.53
2023-03-06T23:59:01.317Z,98073.80
